Time;durP1;ratioP1;P1;durP2;ratioP2;P2;SDS_P1;SDS_P2;PMS_P1;PMS_P2;Temp;Humidity;BMP_temperature;BMP_pressure;BME280_temperature;BME280_humidity;BME280_pressure;Samples;Min_cycle;Max_cycle;Signal;HPM_P1;HPM_P2
2022/06/13 00:00:26;;;;;;;4.87;2.20;;;19.50;94.60;;;;;;5043100;28;20468;-36
2022/06/13 00:02:54;;;;;;;4.67;2.07;;;19.50;95.10;;;;;;5052804;28;20535;-38
2022/06/13 00:05:21;;;;;;;4.93;2.10;;;19.40;95.60;;;;;;5053899;28;20476;-39
2022/06/13 00:07:48;;;;;;;3.63;1.80;;;19.40;96.40;;;;;;5053216;28;20448;-38
2022/06/13 00:10:15;;;;;;;5.07;1.77;;;19.40;97.00;;;;;;5041614;28;20535;-37
2022/06/13 00:12:44;;;;;;;4.83;2.13;;;19.30;97.60;;;;;;5048061;28;20496;-36
2022/06/13 00:15:15;;;;;;;6.30;1.97;;;19.30;98.20;;;;;;5042957;28;20513;-36
2022/06/13 00:17:43;;;;;;;2.63;1.40;;;19.30;98.90;;;;;;5053435;28;20516;-36
2022/06/13 00:20:12;;;;;;;4.63;2.20;;;19.20;99.30;;;;;;5053136;28;20432;-40
2022/06/13 00:22:39;;;;;;;4.27;1.70;;;19.20;99.80;;;;;;5053295;28;20480;-35
2022/06/13 00:25:07;;;;;;;5.73;1.60;;;19.20;99.90;;;;;;5054083;28;20463;-33
2022/06/13 00:27:34;;;;;;;4.43;1.70;;;19.20;99.90;;;;;;5046052;28;20447;-35
2022/06/13 00:30:02;;;;;;;4.47;2.50;;;19.30;99.90;;;;;;5046444;28;20467;-37
2022/06/13 00:32:29;;;;;;;4.90;2.73;;;19.30;99.90;;;;;;5054594;28;20476;-34
2022/06/13 00:34:55;;;;;;;4.27;1.73;;;19.20;99.90;;;;;;5054405;28;20512;-34
2022/06/13 00:37:23;;;;;;;6.53;2.40;;;19.20;99.90;;;;;;5054386;28;20452;-36
2022/06/13 00:39:52;;;;;;;2.80;1.40;;;19.20;99.90;;;;;;5053715;28;20444;-33
2022/06/13 00:42:21;;;;;;;2.83;2.37;;;19.20;99.90;;;;;;5053653;28;20555;-35
2022/06/13 00:45:06;;;;;;;7.40;2.43;;;19.10;99.90;;;;;;5046205;28;20455;-38
2022/06/13 00:47:33;;;;;;;2.00;1.37;;;19.20;99.90;;;;;;5047135;28;20428;-37
2022/06/13 00:50:02;;;;;;;3.80;1.80;;;19.20;99.90;;;;;;5042772;28;20466;-36
2022/06/13 00:52:35;;;;;;;4.03;1.70;;;19.20;99.90;;;;;;5053971;28;20496;-34
2022/06/13 00:55:04;;;;;;;3.40;1.40;;;19.10;99.90;;;;;;5053943;28;20975;-36
2022/06/13 00:57:31;;;;;;;3.57;1.87;;;19.10;99.90;;;;;;5053554;28;20428;-38
2022/06/13 01:00:02;;;;;;;2.60;1.90;;;19.10;99.90;;;;;;5052311;28;20520;-36
2022/06/13 01:02:31;;;;;;;7.20;2.67;;;19.00;99.90;;;;;;5052907;28;20475;-37
2022/06/13 01:05:00;;;;;;;8.70;3.90;;;19.00;99.90;;;;;;5052303;28;20455;-36
2022/06/13 01:07:30;;;;;;;2.23;1.37;;;19.00;99.90;;;;;;5053501;28;20525;-35
2022/06/13 01:12:42;;;;;;;4.13;1.90;;;18.90;99.90;;;;;;5054334;28;20455;-37
2022/06/13 01:15:21;;;;;;;3.27;1.90;;;18.80;99.90;;;;;;5053887;28;20442;-35
2022/06/13 01:17:57;;;;;;;3.93;2.00;;;18.80;99.90;;;;;;5054318;28;20518;-39
2022/06/13 01:20:40;;;;;;;5.53;1.90;;;18.80;99.90;;;;;;5054579;28;20455;-35
2022/06/13 01:23:40;;;;;;;6.50;2.20;;;18.80;99.90;;;;;;5046251;28;20475;-36
2022/06/13 01:26:42;;;;;;;5.60;1.93;;;18.70;99.90;;;;;;5049458;28;20444;-37
2022/06/13 01:29:28;;;;;;;7.50;1.90;;;18.60;99.90;;;;;;5053416;28;20512;-36
2022/06/13 01:32:01;;;;;;;5.40;2.20;;;18.60;99.90;;;;;;5056940;28;20514;-36
2022/06/13 01:34:47;;;;;;;3.50;1.80;;;18.60;99.90;;;;;;5056988;28;20496;-37
2022/06/13 01:37:27;;;;;;;2.57;1.57;;;18.50;99.90;;;;;;5046399;28;20546;-37
2022/06/13 01:40:07;;;;;;;7.90;2.20;;;18.50;99.90;;;;;;5055962;28;20428;-37
2022/06/13 01:42:42;;;;;;;6.27;1.97;;;18.50;99.90;;;;;;5056957;28;20532;-37
2022/06/13 01:45:16;;;;;;;4.00;1.83;;;18.50;99.90;;;;;;5057069;28;20451;-34
2022/06/13 01:47:57;;;;;;;5.50;2.13;;;18.50;99.90;;;;;;5046016;28;20435;-38
2022/06/13 01:50:30;;;;;;;6.90;2.50;;;18.50;99.90;;;;;;5055749;28;20551;-35
2022/06/13 01:53:05;;;;;;;7.77;2.40;;;18.50;99.90;;;;;;5056664;28;20432;-37
2022/06/13 01:55:41;;;;;;;6.47;1.73;;;18.50;99.90;;;;;;5056501;28;20535;-37
2022/06/13 01:58:14;;;;;;;9.80;2.50;;;18.40;99.90;;;;;;5046616;28;20455;-36
2022/06/13 02:00:47;;;;;;;3.40;2.20;;;18.30;99.90;;;;;;5054056;28;20514;-37
2022/06/13 02:03:18;;;;;;;2.90;2.17;;;18.30;99.90;;;;;;5044615;28;20496;-39
2022/06/13 02:05:49;;;;;;;3.40;1.90;;;18.30;99.90;;;;;;5054717;28;20478;-38
2022/06/13 02:08:23;;;;;;;4.60;2.00;;;18.30;99.90;;;;;;5055279;28;20483;-38
2022/06/13 02:10:57;;;;;;;7.20;2.00;;;18.30;99.90;;;;;;5057040;28;20492;-37
2022/06/13 02:13:34;;;;;;;5.77;2.27;;;18.20;99.90;;;;;;5056515;28;20484;-32
2022/06/13 02:16:08;;;;;;;3.77;2.17;;;18.10;99.90;;;;;;5045672;28;20940;-37
2022/06/13 02:18:42;;;;;;;8.83;2.57;;;18.10;99.90;;;;;;5052820;28;20461;-36
2022/06/13 02:21:11;;;;;;;4.00;2.00;;;18.10;99.90;;;;;;5056332;28;20436;-35
2022/06/13 02:23:45;;;;;;;9.17;2.23;;;18.00;99.90;;;;;;5056572;28;20476;-35
2022/06/13 02:26:17;;;;;;;3.83;1.90;;;18.00;99.90;;;;;;5056609;28;20472;-33
2022/06/13 02:28:50;;;;;;;5.27;1.90;;;17.90;99.90;;;;;;5056817;28;20492;-35
2022/06/13 02:31:20;;;;;;;8.90;2.50;;;17.90;99.90;;;;;;5056155;28;20460;-38
2022/06/13 02:33:55;;;;;;;4.77;1.67;;;17.90;99.90;;;;;;5055642;28;20452;-37
2022/06/13 02:36:31;;;;;;;5.60;2.40;;;17.80;99.90;;;;;;5050309;28;20869;-40
2022/06/13 02:39:04;;;;;;;8.10;2.33;;;17.80;99.90;;;;;;5050524;28;20544;-36
2022/06/13 02:41:38;;;;;;;3.60;2.10;;;17.70;99.90;;;;;;5055715;28;20436;-33
2022/06/13 02:44:08;;;;;;;6.13;2.10;;;17.70;99.90;;;;;;5055885;28;20511;-37
2022/06/13 02:46:41;;;;;;;7.90;1.97;;;17.70;99.90;;;;;;5053052;28;20842;-34
2022/06/13 02:49:13;;;;;;;3.03;2.10;;;17.80;99.90;;;;;;5048957;28;20484;-37
2022/06/13 02:51:46;;;;;;;4.20;2.10;;;17.80;99.90;;;;;;5042070;28;20456;-35
2022/06/13 02:54:19;;;;;;;5.70;2.40;;;17.70;99.90;;;;;;5055030;28;20488;-36
2022/06/13 02:59:52;;;;;;;4.10;1.97;;;17.70;99.90;;;;;;5050055;28;20428;-36
2022/06/13 03:02:24;;;;;;;5.57;2.20;;;17.60;99.90;;;;;;5055590;28;20528;-40
2022/06/13 03:04:59;;;;;;;4.80;2.60;;;17.70;99.90;;;;;;5055131;28;20528;-38
2022/06/13 03:07:35;;;;;;;11.53;4.07;;;17.70;99.90;;;;;;5052824;28;20436;-35
2022/06/13 03:10:09;;;;;;;5.50;2.97;;;17.70;99.90;;;;;;5048591;28;20490;-36
2022/06/13 03:12:43;;;;;;;6.00;3.37;;;17.70;99.90;;;;;;5055370;28;20436;-36
2022/06/13 03:15:24;;;;;;;10.50;3.50;;;17.70;99.90;;;;;;5055628;28;20464;-34
2022/06/13 03:17:56;;;;;;;7.50;2.50;;;17.70;99.90;;;;;;5054725;28;20500;-32
2022/06/13 03:20:34;;;;;;;9.47;3.10;;;17.60;99.90;;;;;;5054590;28;20808;-39
2022/06/13 03:23:06;;;;;;;8.30;2.80;;;17.60;99.90;;;;;;5054960;28;20492;-37
2022/06/13 03:25:43;;;;;;;7.17;3.27;;;17.70;99.90;;;;;;5055450;28;20441;-36
2022/06/13 03:28:15;;;;;;;6.17;2.70;;;17.60;99.90;;;;;;5054930;28;20753;-41
2022/06/13 03:30:46;;;;;;;6.77;3.10;;;17.70;99.90;;;;;;5054959;28;20449;-33
2022/06/13 03:36:11;;;;;;;4.77;2.63;;;17.60;99.90;;;;;;5041586;28;20407;-34
2022/06/13 03:38:43;;;;;;;9.53;3.20;;;17.60;99.90;;;;;;5054937;28;20541;-42
2022/06/13 03:41:13;;;;;;;6.20;3.30;;;17.50;99.90;;;;;;5054792;28;20449;-36
2022/06/13 03:43:47;;;;;;;4.00;3.17;;;17.50;99.90;;;;;;5041641;28;20483;-36
2022/06/13 03:46:17;;;;;;;8.03;2.90;;;17.50;99.90;;;;;;5054532;28;20439;-47
2022/06/13 03:48:51;;;;;;;9.13;3.10;;;17.50;99.90;;;;;;5053772;28;20949;-44
2022/06/13 03:51:23;;;;;;;6.10;3.10;;;17.50;99.90;;;;;;5034989;28;20593;-37
2022/06/13 03:53:54;;;;;;;9.30;3.47;;;17.50;99.90;;;;;;5053084;28;20500;-38
2022/06/13 03:56:25;;;;;;;5.07;3.57;;;17.50;99.90;;;;;;5053906;28;20440;-36
2022/06/13 03:58:59;;;;;;;8.87;3.00;;;17.50;99.90;;;;;;5055016;28;20428;-33
2022/06/13 04:01:28;;;;;;;6.40;2.83;;;17.50;99.90;;;;;;5040836;28;20531;-36
2022/06/13 04:03:56;;;;;;;8.20;2.70;;;17.50;99.90;;;;;;5054087;28;21165;-35
2022/06/13 04:06:39;;;;;;;6.97;2.43;;;17.40;99.90;;;;;;5053719;28;20491;-34
2022/06/13 04:09:11;;;;;;;8.23;2.43;;;17.40;99.90;;;;;;5053192;28;20464;-35
2022/06/13 04:11:51;;;;;;;19.10;2.77;;;17.30;99.90;;;;;;5053767;28;20425;-36
2022/06/13 04:14:39;;;;;;;4.20;2.90;;;17.30;99.90;;;;;;5053785;28;20456;-36
2022/06/13 04:17:14;;;;;;;4.20;2.50;;;17.30;99.90;;;;;;5053641;28;20427;-36
2022/06/13 04:19:51;;;;;;;7.53;2.60;;;17.20;99.90;;;;;;5053815;28;20424;-35
2022/06/13 04:22:24;;;;;;;7.43;3.13;;;17.20;99.90;;;;;;5041396;28;20468;-36
2022/06/13 04:24:59;;;;;;;7.10;2.50;;;17.20;99.90;;;;;;5052661;28;20518;-36
2022/06/13 04:27:30;;;;;;;4.27;3.10;;;17.20;99.90;;;;;;5054163;28;20514;-36
2022/06/13 04:30:02;;;;;;;5.27;2.87;;;17.20;99.90;;;;;;5053676;28;20441;-37
2022/06/13 04:32:34;;;;;;;3.77;2.73;;;17.20;99.90;;;;;;5044025;28;20464;-37
2022/06/13 04:35:01;;;;;;;7.23;3.70;;;17.20;99.90;;;;;;5050315;28;20452;-38
2022/06/13 04:37:30;;;;;;;6.80;2.50;;;17.20;99.90;;;;;;5040618;28;20545;-34
2022/06/13 04:40:04;;;;;;;4.07;2.10;;;17.20;99.90;;;;;;5053300;28;20495;-35
2022/06/13 04:42:37;;;;;;;7.23;2.37;;;17.10;99.90;;;;;;5053900;28;20456;-39
2022/06/13 04:45:08;;;;;;;8.70;2.97;;;17.10;99.90;;;;;;5054145;28;20472;-35
2022/06/13 04:47:37;;;;;;;10.33;3.00;;;17.00;99.90;;;;;;5053458;28;20463;-37
2022/06/13 04:50:06;;;;;;;7.50;2.50;;;17.00;99.90;;;;;;5053478;28;20475;-35
2022/06/13 04:52:36;;;;;;;3.77;2.57;;;17.00;99.90;;;;;;5053778;28;20464;-36
2022/06/13 04:55:11;;;;;;;8.77;3.23;;;17.00;99.90;;;;;;5054521;28;20440;-36
2022/06/13 04:57:38;;;;;;;4.70;3.17;;;17.00;99.90;;;;;;5054255;28;20471;-33
2022/06/13 05:00:06;;;;;;;9.73;2.90;;;17.00;99.90;;;;;;5053589;28;20440;-37
2022/06/13 05:02:38;;;;;;;8.13;2.90;;;17.10;99.90;;;;;;5053286;28;20448;-39
2022/06/13 05:05:09;;;;;;;4.80;3.00;;;17.10;99.90;;;;;;5053251;28;20501;-38
2022/06/13 05:07:40;;;;;;;5.10;2.80;;;17.20;99.90;;;;;;5056280;28;20746;-39
2022/06/13 05:10:15;;;;;;;6.87;2.70;;;17.20;99.90;;;;;;5056389;28;20478;-32
2022/06/13 05:12:44;;;;;;;9.57;3.70;;;17.20;99.90;;;;;;5055610;28;20487;-39
2022/06/13 05:15:16;;;;;;;10.03;2.87;;;17.30;99.90;;;;;;5056325;28;20505;-35
2022/06/13 05:18:13;;;;;;;5.87;3.07;;;17.30;99.90;;;;;;5056882;28;20456;-37
2022/06/13 05:20:54;;;;;;;7.90;3.03;;;17.30;99.90;;;;;;5056692;28;20459;-34
2022/06/13 05:23:44;;;;;;;4.53;2.43;;;17.40;99.90;;;;;;5044515;28;20587;-38
2022/06/13 05:26:11;;;;;;;7.97;2.90;;;17.40;99.90;;;;;;5057398;28;20440;-41
2022/06/13 05:28:38;;;;;;;4.67;2.60;;;17.50;99.90;;;;;;5048773;28;20491;-34
2022/06/13 05:31:09;;;;;;;7.00;2.10;;;17.50;99.90;;;;;;5057016;28;20444;-38
2022/06/13 05:33:39;;;;;;;6.07;3.13;;;17.50;99.90;;;;;;5056788;28;20427;-40
2022/06/13 05:36:08;;;;;;;9.13;2.20;;;17.60;99.90;;;;;;5056735;28;20500;-37
2022/06/13 05:38:40;;;;;;;3.67;2.00;;;17.70;99.90;;;;;;5058050;28;20431;-37
2022/06/13 05:41:09;;;;;;;6.50;2.20;;;17.70;99.90;;;;;;5057256;28;20554;-35
2022/06/13 05:43:37;;;;;;;6.50;2.70;;;17.60;99.90;;;;;;5057617;28;20510;-34
2022/06/13 05:46:04;;;;;;;2.63;1.67;;;17.60;99.90;;;;;;5056955;28;20475;-36
2022/06/13 05:48:32;;;;;;;7.67;1.83;;;17.60;99.90;;;;;;5057170;28;20428;-36
2022/06/13 05:50:59;;;;;;;8.50;2.33;;;17.60;99.90;;;;;;5056815;28;20443;-38
2022/06/13 05:53:27;;;;;;;7.53;2.63;;;17.70;99.90;;;;;;5044145;28;20523;-35
2022/06/13 05:55:58;;;;;;;2.60;2.13;;;17.70;99.90;;;;;;5056505;28;20433;-35
2022/06/13 05:58:27;;;;;;;8.27;2.03;;;17.70;99.90;;;;;;5050376;28;20472;-36
2022/06/13 06:00:57;;;;;;;4.57;2.13;;;17.60;99.90;;;;;;5046176;28;20510;-38
2022/06/13 06:03:24;;;;;;;5.20;2.40;;;17.70;99.90;;;;;;5050887;28;20487;-37
2022/06/13 06:05:51;;;;;;;4.33;2.40;;;17.70;99.90;;;;;;5051381;28;20441;-39
2022/06/13 06:08:20;;;;;;;7.93;2.20;;;17.80;99.90;;;;;;5050982;28;20475;-37
2022/06/13 06:10:50;;;;;;;15.33;1.80;;;17.90;99.90;;;;;;5049109;28;20486;-38
2022/06/13 06:13:18;;;;;;;3.40;1.87;;;18.10;99.90;;;;;;5054801;28;20531;-34
2022/06/13 06:15:48;;;;;;;4.50;2.70;;;18.10;99.90;;;;;;5052701;28;20448;-39
2022/06/13 06:18:16;;;;;;;7.20;2.60;;;18.10;99.90;;;;;;5050068;28;20847;-38
2022/06/13 06:20:46;;;;;;;3.70;1.70;;;18.10;99.90;;;;;;5049796;28;20447;-37
2022/06/13 06:23:14;;;;;;;3.97;2.23;;;18.20;99.90;;;;;;5050402;28;20555;-37
2022/06/13 06:25:42;;;;;;;5.53;2.40;;;18.20;99.90;;;;;;5043636;28;20940;-35
2022/06/13 06:28:14;;;;;;;5.33;1.60;;;18.20;99.90;;;;;;5043975;28;20466;-33
2022/06/13 06:30:41;;;;;;;4.60;1.90;;;18.20;99.90;;;;;;5050352;28;20459;-38
2022/06/13 06:33:10;;;;;;;4.97;2.37;;;18.30;99.90;;;;;;5044272;28;20508;-38
2022/06/13 06:35:39;;;;;;;5.20;2.47;;;18.30;99.90;;;;;;5056798;28;20536;-36
2022/06/13 06:38:09;;;;;;;4.70;2.43;;;18.30;99.90;;;;;;5056812;28;20471;-38
2022/06/13 06:40:37;;;;;;;9.10;3.20;;;18.30;99.90;;;;;;5056575;28;20460;-35
2022/06/13 06:43:04;;;;;;;6.30;2.40;;;18.30;99.90;;;;;;5056356;28;20532;-38
2022/06/13 06:45:30;;;;;;;4.87;2.10;;;18.40;99.90;;;;;;5055875;28;20555;-35
2022/06/13 06:47:58;;;;;;;3.80;1.90;;;18.50;99.90;;;;;;5055452;28;20483;-38
2022/06/13 06:50:31;;;;;;;6.13;2.30;;;18.50;99.90;;;;;;5055943;28;20451;-37
2022/06/13 06:52:59;;;;;;;7.97;2.27;;;18.50;99.90;;;;;;5055522;28;20471;-38
2022/06/13 07:01:11;;;;;;;3.93;2.20;;;18.40;99.90;;;;;;4995130;28;20450;-40
2022/06/13 07:03:38;;;;;;;5.63;2.60;;;18.50;99.90;;;;;;5041595;28;20476;-38
2022/06/13 07:06:07;;;;;;;4.13;1.90;;;18.70;99.90;;;;;;5056178;28;20466;-38
2022/06/13 07:08:37;;;;;;;3.20;1.80;;;18.90;99.90;;;;;;5055980;28;20436;-35
2022/06/13 07:14:06;;;;;;;3.63;1.70;;;19.00;99.90;;;;;;5040459;28;20462;-38
2022/06/13 07:16:33;;;;;;;4.50;2.23;;;19.10;99.90;;;;;;5055659;28;20804;-38
2022/06/13 07:19:00;;;;;;;10.27;3.10;;;19.50;99.90;;;;;;5055810;28;20435;-43
2022/06/13 07:21:28;;;;;;;3.17;2.00;;;20.20;98.50;;;;;;5055317;28;20471;-42
2022/06/13 07:23:55;;;;;;;3.93;1.67;;;20.90;96.90;;;;;;5055312;28;20588;-38
2022/06/13 07:26:22;;;;;;;4.10;2.00;;;22.00;94.00;;;;;;5055861;28;20475;-41
2022/06/13 07:28:49;;;;;;;3.90;1.60;;;22.90;91.60;;;;;;5053604;28;20500;-35
2022/06/13 07:31:20;;;;;;;5.03;1.30;;;23.60;85.60;;;;;;5054153;28;20507;-38
2022/06/13 07:33:48;;;;;;;8.53;2.20;;;24.10;81.50;;;;;;5047515;28;20440;-38
2022/06/13 07:36:16;;;;;;;3.10;1.93;;;24.30;78.90;;;;;;5044113;28;20480;-36
2022/06/13 07:38:44;;;;;;;5.63;1.47;;;24.00;77.80;;;;;;5054933;28;20522;-39
2022/06/13 07:41:18;;;;;;;3.00;1.80;;;23.30;77.80;;;;;;5054557;28;20460;-35
2022/06/13 07:43:45;;;;;;;4.93;2.00;;;22.60;77.30;;;;;;5054714;28;21067;-37
2022/06/13 07:46:13;;;;;;;3.33;1.60;;;21.90;78.50;;;;;;5054330;28;20495;-38
2022/06/13 07:48:40;;;;;;;2.63;1.50;;;21.40;80.30;;;;;;5054427;28;20468;-37
2022/06/13 07:51:07;;;;;;;3.63;1.77;;;21.00;81.50;;;;;;5053870;28;20818;-36
2022/06/13 07:53:35;;;;;;;4.50;1.80;;;20.60;81.20;;;;;;5054443;28;20440;-35
2022/06/13 07:56:04;;;;;;;2.00;1.40;;;20.20;83.50;;;;;;5054901;28;20452;-35
2022/06/13 07:58:34;;;;;;;5.47;1.60;;;19.80;83.40;;;;;;5055165;28;20447;-36
2022/06/13 08:01:01;;;;;;;7.17;1.77;;;19.50;82.10;;;;;;5055121;28;20485;-34
2022/06/13 08:03:31;;;;;;;3.07;1.80;;;19.40;82.60;;;;;;5054903;28;20512;-42
2022/06/13 08:05:59;;;;;;;2.67;1.47;;;19.20;83.70;;;;;;5042906;28;20480;-37
2022/06/13 08:08:25;;;;;;;2.70;1.60;;;19.10;84.50;;;;;;5051845;28;20436;-39
2022/06/13 08:10:54;;;;;;;2.90;1.53;;;19.20;85.20;;;;;;5054784;28;20479;-38
2022/06/13 08:13:24;;;;;;;2.60;1.53;;;19.30;85.90;;;;;;5054602;28;20514;-39
2022/06/13 08:15:51;;;;;;;1.70;1.10;;;19.40;86.40;;;;;;5042734;28;20488;-34
2022/06/13 08:18:19;;;;;;;3.30;1.60;;;19.60;86.40;;;;;;5050919;28;20549;-38
2022/06/13 08:20:46;;;;;;;5.57;1.93;;;20.00;85.30;;;;;;5054623;28;20425;-40
2022/06/13 08:23:15;;;;;;;2.13;1.40;;;20.60;83.20;;;;;;5054409;28;20492;-38
2022/06/13 08:25:42;;;;;;;3.50;1.30;;;21.20;80.50;;;;;;5054552;28;20472;-35
2022/06/13 08:28:11;;;;;;;5.93;2.00;;;21.70;77.50;;;;;;5054696;28;20446;-38
2022/06/13 08:30:41;;;;;;;8.20;1.63;;;22.40;78.40;;;;;;5054745;28;20503;-37
2022/06/13 08:33:08;;;;;;;4.07;1.80;;;23.40;74.70;;;;;;5053641;28;20805;-38
2022/06/13 08:35:36;;;;;;;4.33;2.83;;;24.50;71.00;;;;;;5054469;28;20439;-37
2022/06/13 08:38:05;;;;;;;2.00;1.60;;;25.50;68.30;;;;;;5038057;28;20472;-39
2022/06/13 08:40:38;;;;;;;9.77;1.97;;;26.40;62.10;;;;;;5043712;28;20467;-37
2022/06/13 08:43:21;;;;;;;3.97;2.90;;;27.10;58.20;;;;;;5054280;28;20490;-37
2022/06/13 08:45:54;;;;;;;1.70;1.40;;;27.30;54.80;;;;;;5057790;28;20468;-40
2022/06/13 08:48:28;;;;;;;3.67;1.70;;;27.80;53.20;;;;;;5057849;28;20438;-36
2022/06/13 08:51:04;;;;;;;3.57;1.90;;;27.70;52.70;;;;;;5057601;28;20503;-37
2022/06/13 08:53:39;;;;;;;3.63;1.93;;;28.60;51.50;;;;;;5057621;28;20432;-37
2022/06/13 08:56:08;;;;;;;2.73;1.53;;;28.90;51.00;;;;;;5057527;28;20467;-37
2022/06/13 08:58:44;;;;;;;3.33;2.10;;;28.90;49.60;;;;;;5045264;28;20927;-38
2022/06/13 09:01:17;;;;;;;4.83;2.93;;;28.00;50.20;;;;;;5056851;28;20447;-44
2022/06/13 09:03:51;;;;;;;9.73;2.10;;;27.00;52.10;;;;;;5057830;28;20452;-40
2022/06/13 09:15:44;;;;;;;6.00;2.13;;;23.40;58.90;;;;;;5210459;22;20503;-37
2022/06/13 09:18:24;;;;;;;6.40;1.90;;;23.60;59.20;;;;;;5056393;28;20514;-38
2022/06/13 09:21:04;;;;;;;7.03;2.50;;;24.10;58.00;;;;;;5056995;28;20451;-38
2022/06/13 09:23:45;;;;;;;8.00;4.97;;;24.10;56.90;;;;;;5056182;28;20455;-39
2022/06/13 09:26:20;;;;;;;4.00;2.33;;;23.90;57.80;;;;;;5047874;28;21003;-39
2022/06/13 09:28:52;;;;;;;12.40;2.30;;;23.60;58.30;;;;;;5051529;28;20499;-40
2022/06/13 09:31:28;;;;;;;3.67;1.70;;;23.10;59.50;;;;;;5056416;28;20440;-41
2022/06/13 09:34:04;;;;;;;4.17;1.90;;;22.60;61.20;;;;;;5056541;28;20495;-40
2022/06/13 09:36:36;;;;;;;5.33;2.53;;;22.20;62.30;;;;;;5049923;28;20431;-37
2022/06/13 09:39:05;;;;;;;5.00;3.07;;;21.90;63.00;;;;;;5050062;28;20480;-39
2022/06/13 09:42:01;;;;;;;6.60;2.63;;;22.40;63.30;;;;;;5056599;28;20447;-40
2022/06/13 09:44:41;;;;;;;7.90;2.30;;;22.90;62.40;;;;;;5055450;28;20515;-40
2022/06/13 09:47:19;;;;;;;4.30;1.97;;;23.60;61.30;;;;;;5055798;28;20891;-39
2022/06/13 09:49:56;;;;;;;8.43;2.57;;;24.30;60.10;;;;;;5054737;28;20488;-35
2022/06/13 09:52:35;;;;;;;5.30;2.27;;;25.20;59.30;;;;;;5052547;28;20496;-47
2022/06/13 09:55:09;;;;;;;3.37;2.07;;;26.00;57.80;;;;;;5054254;28;20464;-40
2022/06/13 09:57:44;;;;;;;3.97;2.43;;;26.60;56.00;;;;;;5054081;28;20448;-43
2022/06/13 10:00:16;;;;;;;4.37;2.17;;;27.20;54.30;;;;;;5055981;28;20486;-40
2022/06/13 10:02:50;;;;;;;4.60;2.40;;;27.70;53.20;;;;;;5055756;28;20468;-40
2022/06/13 10:05:37;;;;;;;5.47;2.50;;;28.00;52.60;;;;;;5055965;28;20850;-38
2022/06/13 10:08:23;;;;;;;3.40;2.03;;;28.50;51.60;;;;;;5055704;28;20455;-42
2022/06/13 10:10:58;;;;;;;3.73;1.83;;;28.60;51.90;;;;;;5043182;28;20448;-37
2022/06/13 10:13:36;;;;;;;4.20;1.57;;;28.90;49.60;;;;;;5055476;28;20433;-40
2022/06/13 10:16:11;;;;;;;5.90;1.97;;;28.50;49.30;;;;;;5054364;28;20454;-41
2022/06/13 10:18:59;;;;;;;4.10;2.57;;;28.00;49.70;;;;;;5054005;28;20436;-43
2022/06/13 10:21:33;;;;;;;3.53;1.63;;;27.40;50.40;;;;;;5054136;28;20528;-42
2022/06/13 10:24:10;;;;;;;5.30;3.10;;;27.50;50.10;;;;;;5054240;28;20478;-40
2022/06/13 10:26:45;;;;;;;3.97;2.07;;;27.20;49.30;;;;;;5054285;28;21000;-40
2022/06/13 10:29:32;;;;;;;3.30;1.80;;;26.70;50.50;;;;;;5043008;28;20527;-39
2022/06/13 10:32:10;;;;;;;2.10;1.80;;;26.20;51.00;;;;;;5010347;28;20480;-41
2022/06/13 10:34:54;;;;;;;4.57;1.90;;;26.00;50.60;;;;;;5053990;28;20444;-37
2022/06/13 10:37:31;;;;;;;4.40;2.03;;;25.80;51.40;;;;;;5040782;28;20484;-38
2022/06/13 10:40:01;;;;;;;4.50;1.87;;;25.80;52.00;;;;;;5054832;28;20471;-39
2022/06/13 10:42:30;;;;;;;6.43;2.60;;;26.00;52.40;;;;;;5055459;28;20440;-35
2022/06/13 10:44:58;;;;;;;2.43;1.40;;;26.00;51.10;;;;;;5055858;28;20551;-37
2022/06/13 10:47:33;;;;;;;5.23;1.83;;;25.50;51.40;;;;;;5041229;28;20507;-36
2022/06/13 10:50:05;;;;;;;3.90;1.83;;;25.10;51.50;;;;;;5055309;28;20463;-37
2022/06/13 10:52:39;;;;;;;3.80;1.90;;;24.20;51.60;;;;;;5055713;28;20424;-34
2022/06/13 10:55:09;;;;;;;2.67;1.77;;;23.80;52.80;;;;;;5055941;28;20472;-38
2022/06/13 10:57:41;;;;;;;3.53;1.90;;;24.20;53.40;;;;;;5055643;28;20441;-37
2022/06/13 11:00:14;;;;;;;2.80;1.70;;;24.50;52.70;;;;;;5055251;28;20462;-37
2022/06/13 11:02:41;;;;;;;4.07;1.97;;;24.40;53.30;;;;;;5055224;28;20496;-37
2022/06/13 11:05:10;;;;;;;5.27;1.90;;;24.60;53.70;;;;;;5055464;28;20491;-41
2022/06/13 11:07:46;;;;;;;5.63;1.87;;;24.70;53.10;;;;;;5045916;28;20828;-37
2022/06/13 11:10:30;;;;;;;6.43;1.90;;;24.70;52.50;;;;;;5050698;28;20543;-39
2022/06/13 11:13:00;;;;;;;4.13;2.33;;;24.50;52.70;;;;;;5054728;28;20456;-36
2022/06/13 11:24:13;;;;;;;4.53;1.93;;;24.60;51.90;;;;;;5055230;28;20430;-36
2022/06/13 11:29:27;;;;;;;3.73;1.63;;;24.60;49.70;;;;;;5054162;28;20452;-36
2022/06/13 11:31:56;;;;;;;2.80;1.57;;;24.60;49.90;;;;;;5054911;28;20464;-38
2022/06/13 11:34:29;;;;;;;3.47;1.67;;;24.60;50.10;;;;;;5053990;28;20479;-37
2022/06/13 11:37:02;;;;;;;2.73;1.80;;;24.10;50.60;;;;;;5041168;28;20802;-39
2022/06/13 11:39:37;;;;;;;6.80;2.13;;;23.60;52.80;;;;;;5053843;28;20429;-40
2022/06/13 11:42:05;;;;;;;5.00;2.60;;;23.20;54.30;;;;;;5053652;28;20440;-37
2022/06/13 11:44:41;;;;;;;3.57;1.70;;;23.10;54.40;;;;;;5053925;28;20455;-36
2022/06/13 11:47:08;;;;;;;4.03;2.03;;;23.00;54.90;;;;;;5052811;28;20452;-40
2022/06/13 11:49:39;;;;;;;2.93;1.63;;;22.80;55.20;;;;;;5053796;28;20451;-39
2022/06/13 11:55:19;;;;;;;2.90;1.90;;;23.10;56.00;;;;;;5053897;28;20443;-40
2022/06/13 11:57:53;;;;;;;4.37;2.00;;;23.30;55.70;;;;;;5049347;28;20412;-36
2022/06/13 12:00:35;;;;;;;2.60;1.83;;;23.30;55.30;;;;;;5054095;28;20467;-45
2022/06/13 12:03:16;;;;;;;2.83;1.70;;;23.20;55.00;;;;;;5039609;28;20443;-37
2022/06/13 12:05:43;;;;;;;3.80;1.87;;;23.10;55.80;;;;;;5051791;28;20480;-37
2022/06/13 12:08:22;;;;;;;3.20;1.83;;;23.10;55.80;;;;;;5044343;28;20512;-38
2022/06/13 12:11:03;;;;;;;8.27;2.40;;;22.90;56.10;;;;;;5054082;28;20464;-38
2022/06/13 12:13:32;;;;;;;5.60;2.30;;;22.80;55.50;;;;;;5054648;28;20449;-39
2022/06/13 12:16:09;;;;;;;4.10;2.10;;;22.60;55.80;;;;;;5054089;28;20475;-39
2022/06/13 12:18:43;;;;;;;6.63;3.30;;;22.30;56.30;;;;;;5054264;28;20432;-37
2022/06/13 12:21:21;;;;;;;4.37;2.30;;;22.00;57.50;;;;;;5054673;28;20503;-38
2022/06/13 12:23:54;;;;;;;2.60;2.17;;;21.40;59.20;;;;;;5055336;28;20475;-37
2022/06/13 12:26:28;;;;;;;4.13;2.50;;;21.00;61.50;;;;;;5054437;28;20483;-40
2022/06/13 12:29:18;;;;;;;2.27;1.70;;;20.90;62.90;;;;;;5041695;28;20925;-39
2022/06/13 12:31:53;;;;;;;12.37;3.70;;;21.20;63.30;;;;;;5053967;28;20488;-44
2022/06/13 12:34:31;;;;;;;6.80;2.80;;;21.10;61.60;;;;;;5053074;28;20447;-39
2022/06/13 12:37:15;;;;;;;3.97;1.90;;;21.00;60.90;;;;;;5042703;28;20432;-36
2022/06/13 12:39:55;;;;;;;2.20;1.53;;;20.70;61.40;;;;;;5040361;28;20409;-38
2022/06/13 12:43:01;;;;;;;2.60;2.03;;;20.50;61.30;;;;;;5054387;28;20419;-39
2022/06/13 12:45:48;;;;;;;2.20;1.90;;;20.20;61.90;;;;;;5034155;28;20492;-37
2022/06/13 12:48:29;;;;;;;2.47;1.50;;;20.10;61.90;;;;;;5054033;28;20497;-39
2022/06/13 12:51:11;;;;;;;5.63;1.67;;;20.20;60.70;;;;;;5055021;28;20502;-37
2022/06/13 12:54:06;;;;;;;2.37;1.67;;;20.40;60.20;;;;;;5054242;28;20448;-37
2022/06/13 12:56:42;;;;;;;2.47;1.60;;;20.70;60.30;;;;;;5048761;28;20540;-42
2022/06/13 12:59:24;;;;;;;3.13;2.70;;;21.20;59.70;;;;;;5053914;28;20484;-40
2022/06/13 13:02:02;;;;;;;4.13;1.57;;;21.20;58.40;;;;;;5053564;28;20467;-40
2022/06/13 13:04:49;;;;;;;1.87;1.20;;;21.30;58.40;;;;;;5040886;28;20436;-40
2022/06/13 13:07:22;;;;;;;4.57;1.93;;;21.10;58.20;;;;;;5053004;28;20516;-37
2022/06/13 13:10:08;;;;;;;1.80;1.40;;;21.20;59.20;;;;;;5040644;28;20456;-38
2022/06/13 13:13:12;;;;;;;3.30;1.60;;;21.40;58.70;;;;;;5052791;28;20650;-39
2022/06/13 13:15:45;;;;;;;5.63;2.10;;;21.80;58.70;;;;;;5015428;28;20539;-38
2022/06/13 13:18:24;;;;;;;2.53;1.93;;;22.10;57.70;;;;;;5053688;28;20444;-40
2022/06/13 13:20:58;;;;;;;2.37;1.93;;;21.90;57.60;;;;;;5054295;28;20475;-48
2022/06/13 13:23:36;;;;;;;3.23;1.80;;;21.60;59.00;;;;;;5054436;28;20448;-39
2022/06/13 13:26:14;;;;;;;7.13;2.00;;;21.30;60.70;;;;;;5054808;28;20515;-46
2022/06/13 13:28:53;;;;;;;3.20;1.60;;;21.20;63.80;;;;;;5057127;28;20432;-42
2022/06/13 13:31:29;;;;;;;3.53;1.57;;;21.00;66.10;;;;;;5056658;28;20479;-46
2022/06/13 13:34:14;;;;;;;5.80;1.53;;;20.80;67.30;;;;;;5056263;28;20472;-39
2022/06/13 13:36:49;;;;;;;2.03;1.70;;;20.70;68.20;;;;;;5057268;28;20523;-36
2022/06/13 13:39:20;;;;;;;4.40;1.70;;;20.90;68.90;;;;;;5056960;28;20462;-40
2022/06/13 13:41:54;;;;;;;3.40;1.70;;;21.10;68.40;;;;;;5057407;28;20503;-38
2022/06/13 13:44:26;;;;;;;7.33;2.00;;;21.30;67.80;;;;;;5054263;28;20423;-38
2022/06/13 13:46:58;;;;;;;4.03;1.83;;;21.50;67.80;;;;;;5045814;28;20524;-43
2022/06/13 13:49:32;;;;;;;2.13;1.53;;;21.70;67.60;;;;;;5056847;28;20553;-35
2022/06/13 13:52:02;;;;;;;7.63;2.13;;;21.60;66.40;;;;;;5057472;28;20471;-38
2022/06/13 13:54:34;;;;;;;2.73;1.60;;;21.30;66.80;;;;;;5057740;28;20432;-38
2022/06/13 13:57:07;;;;;;;2.00;1.50;;;21.20;66.90;;;;;;5057707;28;20460;-36